createdAt,value
2017-10-20T00:00:14.545Z,11.70
2017-10-20T00:02:42.863Z,11.70
2017-10-20T00:05:10.420Z,11.70
2017-10-20T00:07:37.953Z,11.70
2017-10-20T00:10:05.510Z,11.70
2017-10-20T00:12:33.053Z,11.80
2017-10-20T00:15:01.368Z,11.80
2017-10-20T00:17:28.893Z,11.80
2017-10-20T00:19:57.221Z,11.80
2017-10-20T00:22:24.758Z,11.80
2017-10-20T00:24:52.318Z,11.80
2017-10-20T00:27:19.846Z,11.80
2017-10-20T00:29:48.146Z,11.80
2017-10-20T00:32:15.928Z,11.70
2017-10-20T00:34:43.461Z,11.70
2017-10-20T00:37:11.016Z,11.80
2017-10-20T00:39:39.307Z,11.80
2017-10-20T00:42:06.861Z,11.80
2017-10-20T00:44:34.399Z,11.80
2017-10-20T00:47:02.737Z,11.80
2017-10-20T00:49:30.298Z,11.80
2017-10-20T00:51:57.848Z,11.80
2017-10-20T00:54:25.381Z,11.80
2017-10-20T00:56:52.937Z,11.80
2017-10-20T00:59:20.476Z,11.80
2017-10-20T01:01:48.808Z,11.70
2017-10-20T01:04:16.338Z,11.70
2017-10-20T01:06:43.858Z,11.70
2017-10-20T01:09:11.409Z,11.80
2017-10-20T01:11:38.937Z,11.80
2017-10-20T01:14:06.488Z,11.90
2017-10-20T01:16:34.034Z,11.90
2017-10-20T01:19:01.596Z,11.90
2017-10-20T01:21:29.141Z,11.90
2017-10-20T01:23:57.453Z,11.90
2017-10-20T01:26:25.000Z,11.80
2017-10-20T01:28:52.570Z,11.90
2017-10-20T01:31:20.100Z,11.80
2017-10-20T01:33:47.666Z,11.80
2017-10-20T01:36:15.199Z,11.80
2017-10-20T01:38:43.544Z,11.80
2017-10-20T01:41:11.072Z,11.80
2017-10-20T01:43:38.617Z,11.90
2017-10-20T01:46:06.165Z,12.00
2017-10-20T01:48:34.465Z,11.90
2017-10-20T01:51:02.025Z,12.00
2017-10-20T01:53:29.552Z,12.00
2017-10-20T01:55:57.101Z,11.90
2017-10-20T01:58:24.641Z,11.90
2017-10-20T02:00:52.193Z,11.90
2017-10-20T02:03:19.737Z,11.90
2017-10-20T02:05:47.299Z,11.90
2017-10-20T02:08:14.840Z,11.90
2017-10-20T02:10:42.398Z,12.00
2017-10-20T02:13:09.944Z,12.00
2017-10-20T02:15:38.250Z,12.00
2017-10-20T02:18:05.808Z,12.00
2017-10-20T02:20:33.336Z,11.90
2017-10-20T02:23:01.653Z,11.80
2017-10-20T02:25:29.190Z,11.80
2017-10-20T02:27:56.754Z,11.90
2017-10-20T02:30:24.289Z,11.80
2017-10-20T02:32:52.600Z,12.00
2017-10-20T02:35:20.273Z,12.00
2017-10-20T02:37:47.892Z,12.00
2017-10-20T02:40:16.091Z,12.00
2017-10-20T02:42:44.785Z,12.20
2017-10-20T02:45:12.364Z,12.30
2017-10-20T02:47:39.901Z,12.30
2017-10-20T02:50:07.457Z,12.30
2017-10-20T02:52:35.882Z,12.10
2017-10-20T02:55:04.318Z,12.10
2017-10-20T02:57:31.880Z,12.20
2017-10-20T03:00:00.218Z,12.00
2017-10-20T03:02:27.749Z,12.00
2017-10-20T03:04:56.077Z,11.90
2017-10-20T03:07:23.662Z,12.00
2017-10-20T03:09:51.968Z,11.90
2017-10-20T03:12:19.533Z,11.90
2017-10-20T03:14:47.070Z,11.80
2017-10-20T03:17:15.392Z,11.90
2017-10-20T03:19:42.946Z,11.90
2017-10-20T03:22:10.501Z,12.00
2017-10-20T03:24:38.053Z,12.00
2017-10-20T03:27:05.608Z,12.00
2017-10-20T03:29:33.167Z,12.00
2017-10-20T03:32:00.710Z,11.90
2017-10-20T03:34:28.265Z,12.00
2017-10-20T03:36:56.568Z,12.10
2017-10-20T03:39:24.114Z,12.10
2017-10-20T03:41:51.655Z,12.20
2017-10-20T03:44:19.980Z,12.50
2017-10-20T03:46:47.522Z,12.50
2017-10-20T03:49:15.081Z,12.90
2017-10-20T03:51:42.625Z,13.10
2017-10-20T03:54:10.919Z,13.30
2017-10-20T03:56:38.479Z,13.30
2017-10-20T03:59:06.128Z,13.30
2017-10-20T04:01:33.682Z,13.30
2017-10-20T04:04:01.226Z,13.40
2017-10-20T04:06:29.565Z,13.40
2017-10-20T04:08:57.117Z,13.40
2017-10-20T04:11:24.653Z,13.30
2017-10-20T04:13:52.985Z,13.30
2017-10-20T04:16:20.517Z,13.30
2017-10-20T04:18:48.127Z,13.20
2017-10-20T04:21:15.694Z,13.20
2017-10-20T04:23:43.502Z,13.20
2017-10-20T04:26:11.077Z,13.30
2017-10-20T04:28:38.644Z,13.10
2017-10-20T04:31:06.301Z,13.10
2017-10-20T04:33:34.648Z,13.00
2017-10-20T04:36:02.285Z,13.00
2017-10-20T04:38:29.820Z,12.90
2017-10-20T04:40:57.357Z,12.70
2017-10-20T04:43:24.913Z,12.60
2017-10-20T04:45:52.469Z,12.50
2017-10-20T04:48:19.997Z,12.50
2017-10-20T04:50:47.547Z,12.40
2017-10-20T04:53:15.857Z,12.30
2017-10-20T04:55:43.421Z,12.20
2017-10-20T04:58:11.762Z,12.20
2017-10-20T05:00:39.297Z,12.20
2017-10-20T05:03:06.845Z,12.20
2017-10-20T05:05:34.380Z,12.30
2017-10-20T05:08:02.673Z,12.10
2017-10-20T05:10:31.005Z,12.00
2017-10-20T05:12:58.563Z,12.00
2017-10-20T05:15:26.169Z,12.00
2017-10-20T05:17:53.710Z,11.90
2017-10-20T05:20:21.370Z,11.90
2017-10-20T05:22:48.907Z,11.90
2017-10-20T05:25:16.466Z,11.90
2017-10-20T05:27:43.994Z,11.90
2017-10-20T05:30:12.185Z,11.90
2017-10-20T05:32:39.833Z,11.80
2017-10-20T05:35:07.363Z,11.80
2017-10-20T05:37:34.917Z,11.90
2017-10-20T05:40:03.209Z,12.20
2017-10-20T05:42:30.773Z,12.10
2017-10-20T05:44:58.365Z,12.20
2017-10-20T05:47:25.926Z,12.20
2017-10-20T05:49:53.483Z,12.10
2017-10-20T05:52:21.045Z,12.20
2017-10-20T05:54:48.570Z,12.20
2017-10-20T05:57:16.887Z,12.20
2017-10-20T05:59:44.427Z,12.20
2017-10-20T06:02:12.622Z,12.20
2017-10-20T06:04:40.177Z,12.20
2017-10-20T06:07:07.700Z,12.30
2017-10-20T06:09:36.032Z,12.30
2017-10-20T06:12:03.561Z,12.30
2017-10-20T06:14:31.129Z,12.30
2017-10-20T06:16:58.657Z,12.20
2017-10-20T06:19:27.085Z,12.40
2017-10-20T06:21:54.620Z,12.40
2017-10-20T06:24:22.183Z,12.50
2017-10-20T06:26:50.790Z,12.50
2017-10-20T06:29:18.346Z,12.50
2017-10-20T06:31:45.906Z,12.50
2017-10-20T06:34:13.439Z,12.60
2017-10-20T06:36:40.989Z,12.80
2017-10-20T06:39:09.286Z,13.00
2017-10-20T06:41:36.853Z,13.00
2017-10-20T06:44:04.389Z,13.10
2017-10-20T06:46:31.932Z,13.20
2017-10-20T06:49:00.254Z,13.10
2017-10-20T06:51:27.785Z,13.10
2017-10-20T06:53:56.114Z,13.30
2017-10-20T06:56:23.661Z,13.20
2017-10-20T06:58:51.233Z,13.10
2017-10-20T07:01:18.777Z,13.10
2017-10-20T07:03:46.342Z,13.20
2017-10-20T07:06:13.875Z,13.30
2017-10-20T07:08:41.425Z,13.30
2017-10-20T07:11:09.042Z,13.50
2017-10-20T07:13:36.592Z,13.70
2017-10-20T07:16:04.158Z,14.00
2017-10-20T07:18:31.703Z,14.10
2017-10-20T07:20:59.905Z,14.30
2017-10-20T07:23:28.945Z,14.20
2017-10-20T07:25:56.515Z,14.20
2017-10-20T07:28:24.087Z,14.50
2017-10-20T07:30:51.668Z,14.70
2017-10-20T07:33:19.205Z,14.60
2017-10-20T07:35:46.751Z,14.50
2017-10-20T07:38:14.296Z,14.50
2017-10-20T07:40:41.829Z,14.50
2017-10-20T07:43:09.380Z,14.40
2017-10-20T07:45:36.916Z,14.40
2017-10-20T07:48:05.238Z,14.60
2017-10-20T07:50:32.780Z,14.60
2017-10-20T07:53:00.342Z,14.60
2017-10-20T07:55:27.872Z,14.60
2017-10-20T07:57:56.211Z,15.00
2017-10-20T08:00:23.730Z,15.00
2017-10-20T08:02:51.298Z,15.00
2017-10-20T08:05:18.826Z,15.00
2017-10-20T08:07:46.374Z,15.10
2017-10-20T08:10:13.921Z,14.90
2017-10-20T08:12:41.462Z,14.90
2017-10-20T08:15:09.036Z,15.00
2017-10-20T08:17:36.567Z,14.90
2017-10-20T08:20:04.994Z,15.00
2017-10-20T08:22:32.531Z,15.00
2017-10-20T08:25:00.173Z,15.00
2017-10-20T08:27:27.738Z,15.00
2017-10-20T08:29:55.289Z,15.10
2017-10-20T08:32:22.821Z,15.20
2017-10-20T08:34:51.109Z,15.40
2017-10-20T08:37:18.654Z,15.40
2017-10-20T08:39:46.958Z,15.70
2017-10-20T08:42:14.505Z,15.70
2017-10-20T08:44:42.034Z,15.80
2017-10-20T08:47:09.573Z,15.70
2017-10-20T08:49:37.137Z,16.00
2017-10-20T08:52:04.677Z,15.90
2017-10-20T08:54:32.250Z,16.00
2017-10-20T08:56:59.784Z,16.00
2017-10-20T08:59:27.333Z,16.20
2017-10-20T09:01:54.866Z,16.40
2017-10-20T09:04:23.201Z,16.70
2017-10-20T09:06:50.740Z,16.70
2017-10-20T09:09:18.301Z,16.70
2017-10-20T09:11:45.831Z,16.70
2017-10-20T09:14:13.382Z,16.70
2017-10-20T09:16:41.696Z,16.80
2017-10-20T09:19:09.252Z,16.80
2017-10-20T09:21:36.782Z,16.80
2017-10-20T09:24:05.077Z,16.80
2017-10-20T09:26:32.617Z,16.80
2017-10-20T09:29:00.918Z,17.20
2017-10-20T09:31:28.490Z,17.20
2017-10-20T09:33:56.042Z,17.00
2017-10-20T09:36:23.716Z,17.30
2017-10-20T09:38:51.283Z,17.40
2017-10-20T09:41:18.833Z,17.40
2017-10-20T09:43:46.393Z,17.60
2017-10-20T09:46:13.952Z,17.70
2017-10-20T09:48:42.281Z,17.80
2017-10-20T09:51:09.840Z,17.80
2017-10-20T09:53:37.373Z,18.10
2017-10-20T09:56:04.901Z,18.40
2017-10-20T09:58:33.221Z,20.30
2017-10-20T10:01:01.527Z,21.00
2017-10-20T10:03:29.075Z,21.00
2017-10-20T10:05:56.597Z,20.40
2017-10-20T10:08:24.133Z,20.10
2017-10-20T10:10:51.695Z,19.90
2017-10-20T10:13:20.010Z,20.10
2017-10-20T10:15:47.580Z,20.00
2017-10-20T10:18:15.130Z,19.90
2017-10-20T10:20:42.662Z,20.10
2017-10-20T10:23:10.199Z,20.40
2017-10-20T10:25:38.484Z,20.00
2017-10-20T10:28:06.806Z,20.60
2017-10-20T10:30:34.337Z,20.50
2017-10-20T10:33:02.647Z,20.20
2017-10-20T10:35:30.194Z,20.20
2017-10-20T10:37:58.511Z,20.60
2017-10-20T10:40:26.082Z,20.60
2017-10-20T10:42:53.620Z,20.40
2017-10-20T10:45:21.923Z,20.90
2017-10-20T10:47:49.473Z,20.90
2017-10-20T10:50:17.005Z,21.50
2017-10-20T10:52:45.313Z,21.70
2017-10-20T10:55:13.866Z,21.60
2017-10-20T10:57:42.187Z,21.10
2017-10-20T11:00:09.728Z,21.10
2017-10-20T11:02:37.277Z,20.60
2017-10-20T11:05:06.365Z,20.40
2017-10-20T11:07:46.487Z,19.70
2017-10-20T11:10:25.875Z,19.70
2017-10-20T11:13:00.463Z,19.70
2017-10-20T11:15:28.002Z,19.50
2017-10-20T11:17:55.558Z,19.40
2017-10-20T11:20:23.098Z,19.20
2017-10-20T11:22:50.621Z,19.10
2017-10-20T11:25:18.954Z,19.00
2017-10-20T11:27:46.481Z,19.00
2017-10-20T11:30:14.033Z,19.00
2017-10-20T11:32:41.576Z,18.90
2017-10-20T11:35:09.889Z,18.70
2017-10-20T11:37:37.421Z,18.60
2017-10-20T11:40:04.986Z,18.80
2017-10-20T11:42:32.512Z,19.00
2017-10-20T11:45:00.061Z,19.20
2017-10-20T11:47:27.608Z,19.20
2017-10-20T11:49:55.173Z,19.00
2017-10-20T11:52:22.912Z,19.10
2017-10-20T11:54:50.441Z,18.90
2017-10-20T11:57:18.014Z,18.80
2017-10-20T11:59:45.555Z,18.80
2017-10-20T12:02:13.921Z,18.70
2017-10-20T12:04:42.258Z,18.70
2017-10-20T12:07:09.786Z,18.70
2017-10-20T12:09:37.351Z,18.60
2017-10-20T12:12:04.896Z,18.50
2017-10-20T12:14:32.441Z,18.50
2017-10-20T12:17:00.762Z,18.30
2017-10-20T12:19:28.304Z,18.30
2017-10-20T12:21:55.988Z,18.20
2017-10-20T12:24:23.533Z,18.20
2017-10-20T12:26:51.087Z,18.30
2017-10-20T12:29:18.609Z,18.10
2017-10-20T12:31:46.156Z,18.20
2017-10-20T12:34:13.693Z,18.20
2017-10-20T12:36:41.996Z,18.30
2017-10-20T12:39:09.557Z,18.20
2017-10-20T12:41:37.083Z,18.10
2017-10-20T12:44:05.392Z,17.90
2017-10-20T12:46:32.919Z,17.80
2017-10-20T12:49:01.244Z,17.70
2017-10-20T12:51:28.801Z,17.70
2017-10-20T12:53:56.369Z,17.70
2017-10-20T12:56:23.903Z,17.60
2017-10-20T12:58:51.453Z,17.60
2017-10-20T13:01:18.986Z,17.50
2017-10-20T13:03:46.546Z,17.50
2017-10-20T13:06:14.082Z,17.40
2017-10-20T13:08:41.631Z,17.50
2017-10-20T13:11:09.278Z,17.40
2017-10-20T13:13:36.911Z,17.30
2017-10-20T13:16:04.478Z,17.30
2017-10-20T13:18:32.016Z,17.20
2017-10-20T13:21:00.336Z,17.30
2017-10-20T13:23:27.885Z,17.20
2017-10-20T13:25:55.453Z,17.40
2017-10-20T13:28:22.978Z,17.30
2017-10-20T13:30:51.300Z,17.50
2017-10-20T13:33:18.853Z,17.50
2017-10-20T13:35:46.429Z,17.40
2017-10-20T13:38:13.990Z,17.40
2017-10-20T13:40:41.541Z,17.50
2017-10-20T13:43:09.084Z,17.50
2017-10-20T13:45:36.619Z,17.40
2017-10-20T13:48:04.939Z,17.20
2017-10-20T13:50:32.513Z,17.20
2017-10-20T13:53:00.070Z,17.20
2017-10-20T13:55:27.646Z,17.40
2017-10-20T13:57:55.207Z,17.80
2017-10-20T14:00:22.736Z,17.90
2017-10-20T14:02:50.333Z,17.80
2017-10-20T14:05:17.861Z,17.70
2017-10-20T14:07:45.407Z,17.70
2017-10-20T14:10:12.947Z,17.80
2017-10-20T14:12:40.497Z,18.30
2017-10-20T14:15:08.050Z,19.00
2017-10-20T14:17:35.622Z,19.40
2017-10-20T14:20:03.948Z,18.90
2017-10-20T14:22:31.506Z,18.90
2017-10-20T14:24:59.061Z,19.10
2017-10-20T14:27:26.612Z,19.20
2017-10-20T14:29:54.154Z,18.60
2017-10-20T14:32:22.468Z,18.20
2017-10-20T14:34:51.001Z,18.20
2017-10-20T14:37:19.297Z,17.70
2017-10-20T14:39:47.628Z,17.50
2017-10-20T14:42:15.181Z,17.50
2017-10-20T14:44:42.753Z,17.40
2017-10-20T14:47:10.301Z,17.20
2017-10-20T14:49:37.856Z,17.30
2017-10-20T14:52:05.419Z,17.40
2017-10-20T14:54:32.963Z,17.30
2017-10-20T14:57:00.512Z,17.30
2017-10-20T14:59:28.072Z,16.90
2017-10-20T15:01:55.649Z,16.80
2017-10-20T15:04:23.190Z,17.00
2017-10-20T15:06:50.765Z,17.00
2017-10-20T15:09:18.300Z,17.00
2017-10-20T15:11:45.854Z,16.90
2017-10-20T15:14:13.390Z,16.70
2017-10-20T15:16:40.939Z,16.70
2017-10-20T15:19:08.488Z,16.70
2017-10-20T15:21:36.037Z,16.70
2017-10-20T15:24:03.602Z,16.40
2017-10-20T15:26:31.145Z,16.50
2017-10-20T15:28:58.805Z,16.50
2017-10-20T15:31:26.349Z,16.50
2017-10-20T15:33:53.906Z,16.50
2017-10-20T15:36:21.449Z,16.50
2017-10-20T15:38:49.744Z,16.30
2017-10-20T15:41:17.305Z,16.30
2017-10-20T15:43:44.838Z,16.20
2017-10-20T15:46:13.161Z,16.10
2017-10-20T15:48:40.691Z,16.10
2017-10-20T15:51:08.234Z,16.10
2017-10-20T15:53:36.525Z,16.00
2017-10-20T15:56:04.069Z,16.00
2017-10-20T15:58:31.623Z,16.00
2017-10-20T16:00:59.176Z,15.90
2017-10-20T16:03:26.727Z,15.90
2017-10-20T16:05:54.265Z,15.80
2017-10-20T16:08:21.820Z,15.80
2017-10-20T16:10:49.381Z,15.80
2017-10-20T16:13:16.954Z,15.70
2017-10-20T16:15:44.497Z,15.70
2017-10-20T16:18:12.048Z,15.60
2017-10-20T16:20:39.586Z,15.60
2017-10-20T16:23:11.662Z,15.50
2017-10-20T16:25:40.005Z,15.60
2017-10-20T16:28:07.553Z,15.50
2017-10-20T16:30:35.115Z,15.60
2017-10-20T16:33:02.688Z,15.60
2017-10-20T16:35:30.319Z,15.60
2017-10-20T16:37:57.850Z,15.60
2017-10-20T16:40:26.182Z,15.60
2017-10-20T16:42:53.709Z,15.60
2017-10-20T16:45:21.254Z,15.60
2017-10-20T16:47:48.810Z,15.70
2017-10-20T16:50:16.349Z,15.70
2017-10-20T16:52:44.648Z,15.70
2017-10-20T16:55:12.193Z,15.70
2017-10-20T16:57:40.491Z,15.70
2017-10-20T17:00:08.052Z,15.60
2017-10-20T17:02:35.584Z,15.70
2017-10-20T17:05:03.917Z,15.70
2017-10-20T17:07:31.510Z,15.70
2017-10-20T17:09:59.802Z,15.60
2017-10-20T17:12:27.334Z,15.60
2017-10-20T17:14:54.898Z,15.50
2017-10-20T17:17:22.437Z,15.60
2017-10-20T17:19:49.977Z,15.60
2017-10-20T17:22:17.528Z,15.60
2017-10-20T17:24:45.056Z,15.50
2017-10-20T17:27:13.366Z,15.50
2017-10-20T17:29:40.948Z,15.40
2017-10-20T17:32:08.489Z,15.50
2017-10-20T17:34:36.026Z,15.50
2017-10-20T17:37:05.294Z,15.50
2017-10-20T17:39:32.864Z,15.50
2017-10-20T17:42:01.284Z,15.40
2017-10-20T17:44:28.837Z,15.50
2017-10-20T17:46:56.401Z,15.40
2017-10-20T17:49:23.925Z,15.30
2017-10-20T17:51:52.224Z,15.30
2017-10-20T17:54:19.812Z,15.20
2017-10-20T17:56:47.345Z,15.20
2017-10-20T17:59:14.890Z,15.10
2017-10-20T18:01:42.422Z,15.10
2017-10-20T18:04:09.984Z,15.20
2017-10-20T18:06:38.329Z,15.30
2017-10-20T18:09:05.885Z,15.20
2017-10-20T18:11:33.435Z,15.20
2017-10-20T18:14:01.003Z,15.30
2017-10-20T18:16:28.569Z,15.20
2017-10-20T18:18:56.103Z,15.10
2017-10-20T18:21:23.789Z,15.00
2017-10-20T18:23:51.449Z,15.00
2017-10-20T18:26:19.002Z,14.90
2017-10-20T18:28:46.571Z,14.90
2017-10-20T18:31:14.137Z,14.90
2017-10-20T18:33:41.750Z,15.00
2017-10-20T18:36:10.076Z,15.00
2017-10-20T18:38:37.618Z,15.00
2017-10-20T18:41:05.309Z,15.10
2017-10-20T18:43:32.914Z,14.90
2017-10-20T18:46:01.272Z,15.10
2017-10-20T18:48:29.608Z,14.90
2017-10-20T18:50:57.137Z,14.90
2017-10-20T18:53:24.703Z,14.90
2017-10-20T18:55:52.257Z,14.80
2017-10-20T18:58:19.793Z,14.90
2017-10-20T19:00:47.377Z,14.90
2017-10-20T19:03:15.701Z,14.80
2017-10-20T19:05:43.224Z,14.80
2017-10-20T19:08:10.778Z,14.70
2017-10-20T19:10:38.361Z,14.70
2017-10-20T19:13:05.905Z,14.70
2017-10-20T19:15:33.478Z,14.60
2017-10-20T19:18:01.014Z,14.70
2017-10-20T19:20:29.322Z,14.70
2017-10-20T19:22:56.913Z,14.70
2017-10-20T19:25:24.465Z,14.60
2017-10-20T19:27:52.793Z,14.70
2017-10-20T19:30:21.096Z,14.70
2017-10-20T19:32:48.651Z,14.60
2017-10-20T19:35:16.215Z,14.60
2017-10-20T19:37:43.792Z,14.70
2017-10-20T19:40:11.333Z,14.80
2017-10-20T19:42:38.897Z,14.70
2017-10-20T19:45:06.448Z,14.60
2017-10-20T19:47:34.011Z,14.70
2017-10-20T19:50:01.554Z,14.70
2017-10-20T19:52:29.085Z,14.70
2017-10-20T19:54:57.420Z,14.80
2017-10-20T19:57:24.989Z,14.80
2017-10-20T19:59:52.546Z,14.80
2017-10-20T20:02:20.096Z,14.80
2017-10-20T20:04:47.674Z,14.80
2017-10-20T20:07:15.202Z,14.80
2017-10-20T20:09:42.765Z,14.80
2017-10-20T20:12:10.300Z,14.80
2017-10-20T20:14:37.946Z,14.90
2017-10-20T20:17:05.514Z,14.80
2017-10-20T20:19:33.090Z,14.90
2017-10-20T20:22:00.625Z,14.90
2017-10-20T20:24:28.200Z,14.90
2017-10-20T20:26:55.720Z,14.90
2017-10-20T20:29:24.405Z,14.90
2017-10-20T20:31:55.521Z,14.90
2017-10-20T20:34:23.569Z,14.80
2017-10-20T20:36:51.145Z,14.90
2017-10-20T20:39:18.683Z,14.90
2017-10-20T20:41:46.248Z,15.00
2017-10-20T20:44:13.785Z,14.80
2017-10-20T20:46:41.345Z,14.80
2017-10-20T20:49:08.883Z,14.80
2017-10-20T20:51:37.195Z,14.70
2017-10-20T20:54:04.746Z,14.70
2017-10-20T20:56:32.309Z,14.60
2017-10-20T20:58:59.868Z,14.60
2017-10-20T21:01:27.403Z,14.50
2017-10-20T21:03:55.733Z,14.50
2017-10-20T21:06:23.265Z,14.40
2017-10-20T21:08:50.817Z,14.50
2017-10-20T21:11:18.378Z,14.50
2017-10-20T21:13:45.956Z,14.40
2017-10-20T21:16:13.488Z,14.30
2017-10-20T21:18:41.058Z,14.20
2017-10-20T21:21:08.609Z,14.20
2017-10-20T21:23:36.164Z,14.10
2017-10-20T21:26:03.703Z,14.20
2017-10-20T21:28:32.034Z,14.10
2017-10-20T21:30:59.565Z,14.10
2017-10-20T21:33:27.089Z,14.10
2017-10-20T21:35:54.658Z,14.00
2017-10-20T21:38:22.197Z,14.00
2017-10-20T21:40:49.757Z,13.90
2017-10-20T21:43:17.286Z,13.80
2017-10-20T21:45:44.837Z,13.80
2017-10-20T21:48:12.373Z,13.70
2017-10-20T21:50:40.705Z,13.50
2017-10-20T21:53:08.237Z,13.50
2017-10-20T21:55:35.804Z,13.50
2017-10-20T21:58:03.342Z,13.50
2017-10-20T22:00:30.924Z,13.50
2017-10-20T22:02:58.497Z,13.40
2017-10-20T22:05:26.048Z,13.50
2017-10-20T22:07:53.614Z,13.50
2017-10-20T22:10:21.175Z,13.50
2017-10-20T22:12:48.694Z,13.60
2017-10-20T22:15:16.250Z,13.50
2017-10-20T22:17:44.668Z,13.30
2017-10-20T22:20:12.217Z,13.30
2017-10-20T22:22:39.768Z,13.30
2017-10-20T22:25:07.304Z,13.30
2017-10-20T22:27:35.658Z,13.50
2017-10-20T22:30:03.208Z,13.50
2017-10-20T22:32:30.760Z,13.50
2017-10-20T22:34:58.318Z,13.60
2017-10-20T22:37:25.857Z,13.70
2017-10-20T22:39:53.440Z,13.70
2017-10-20T22:42:21.005Z,13.70
2017-10-20T22:44:48.558Z,13.70
2017-10-20T22:47:16.104Z,13.70
2017-10-20T22:49:43.685Z,13.60
2017-10-20T22:52:11.220Z,13.70
2017-10-20T22:54:38.803Z,13.70
2017-10-20T22:57:06.370Z,13.70
2017-10-20T22:59:33.941Z,13.70
2017-10-20T23:02:02.275Z,13.60
2017-10-20T23:04:29.802Z,13.60
2017-10-20T23:06:58.129Z,13.50
2017-10-20T23:09:25.677Z,13.50
2017-10-20T23:11:53.236Z,13.60
2017-10-20T23:14:20.797Z,13.50
2017-10-20T23:16:48.377Z,13.40
2017-10-20T23:19:15.918Z,13.40
2017-10-20T23:21:43.466Z,13.40
2017-10-20T23:24:11.036Z,13.40
2017-10-20T23:26:38.595Z,13.40
2017-10-20T23:29:06.136Z,13.40
2017-10-20T23:31:33.701Z,13.40
2017-10-20T23:34:01.245Z,13.30
2017-10-20T23:36:28.788Z,13.30
2017-10-20T23:38:57.114Z,13.30
2017-10-20T23:41:24.678Z,13.20
2017-10-20T23:43:52.240Z,13.30
2017-10-20T23:46:19.774Z,13.20
2017-10-20T23:48:47.353Z,13.50
2017-10-20T23:51:14.929Z,13.40
2017-10-20T23:53:42.494Z,13.40
2017-10-20T23:56:10.136Z,13.40
2017-10-20T23:58:37.702Z,13.40
